Portada
METAR-TAF:

METAR-TAF

Aeroports :

Ingalls Field

Hot Springs, Virgínia, Estats Units d'Amèrica

latitud: 37-57N, longitud: 079-50W, altitud: 1156 m

Observació

L'informe es va fer fa 26 minuts, a les 13:15 UTC
Vent calma
Temperatura 1°C
Humitat 100%
Pressió 1008 hPa
Visibilitat: 16.1 km
Cel ennuvolat a una alçada de 2600 ft

METAR: KHSP 191315Z AUTO 00000KT 10SM BKN026 01/01 A2977 RMK AO2 T00080008

Hora: 08:41 (13:41 UTC)


TAF: manca

Observacions i pronòstics meteorològics de més de 4000 aeroports (METAR i TAF).

Les estacions disponibles són els punts grocs i vermells al mapa.

Posi el ratolí al punt desitjat per veure el nom de l'estació.

Feu clic per veure les observacions i els pronòstics meteorològics.

Per canviar el mapa: feu clic els botons verds amb una creu de color negre per apropar; al botó verd amb un guió per allunyar la imatge; o en les fletxes verdes per a mapes adjacents.


METAR-TAF: